Startpagina
METAR-TAF:

METAR-TAF

Vliegvelden :

Lutselk'e, Northwest Territories, Canada

breedte: 62-25N, lengte: 110-40W, hoogte: 179 m

Actueel weer

Dit bericht is 15 uur en het 10 minuten geleden gemaakt, om 20:00 UTC
Wind 6 kt uit het noordoosten
Temperatuur -11°C
Vochtigheid 43%
Druk 1021 hPa
Zicht: 40.2 km
Weinig wolken op 4800 ft
Weinig wolken op 15000 ft
Verspreide wolken op 21000 ft

METAR: CYLK 042000Z 04006KT 25SM FEW048 FEW150 SCT210 M11/M21 A3015 RMK SC1AC1CC1 CC TR 0/68 SNW CVR/MUCH LOOSE LAST STFD OBS/NEXT 051400 UTC SLP234

Tijdstip: 05:10 (11:10 UTC)

Verwachting

Dit bericht is 18 uur en het 32 minuten geleden gemaakt, om 16:38 UTC
Verwachting geldig van 04 om 17 UTC tot 04 om 20 UTC
Wind 3 kt uit variabele richting
Zicht: 10 km
Weinig wolken op 22000 ft

TAF: CYLK 041638Z 0417/0420 VRB03KT P6SM FEW220 RMK NXT FCST WILL BE ISSUED AT 051545Z

Waarnemingen en weersverwachtingen van meer dan 4000 vliegvelden (METAR en TAF).

De beschikbare stations zijn de gele en rode punten op de kaart.

Ga met uw muis naar het station om de naam te zien.

Klik dan om waarnemingen en weersverwachtingen te zien.

kaart wijzigen: klik op de groene knoppen met een zwart kruis om in te zoomen, op de groene knop met een streepje om uit te zoomen of op de groene pijlen voor aangrenzende kaarten.


METAR-TAF: